createdAt,value
2018-02-20T00:00:37.105Z,2.42
2018-02-20T00:01:37.063Z,2.38
2018-02-20T00:02:37.024Z,2.42
2018-02-20T00:03:36.981Z,2.32
2018-02-20T00:04:36.940Z,2.25
2018-02-20T00:05:36.916Z,2.25
2018-02-20T00:06:36.861Z,2.32
2018-02-20T00:07:36.833Z,2.35
2018-02-20T00:08:36.784Z,2.35
2018-02-20T00:09:36.737Z,2.35
2018-02-20T00:10:36.696Z,2.28
2018-02-20T00:11:36.657Z,2.28
2018-02-20T00:12:36.619Z,2.33
2018-02-20T00:13:36.574Z,2.29
2018-02-20T00:14:36.532Z,2.36
2018-02-20T00:15:36.497Z,2.32
2018-02-20T00:16:36.451Z,2.39
2018-02-20T00:17:36.410Z,2.38
2018-02-20T00:18:36.373Z,2.36
2018-02-20T00:19:36.335Z,2.38
2018-02-20T00:20:36.297Z,2.42
2018-02-20T00:21:36.252Z,2.38
2018-02-20T00:22:36.204Z,2.36
2018-02-20T00:23:36.165Z,2.32
2018-02-20T00:24:36.126Z,2.26
2018-02-20T00:25:36.101Z,2.35
2018-02-20T00:26:36.044Z,2.29
2018-02-20T00:27:36.004Z,2.29
2018-02-20T00:28:35.959Z,2.28
2018-02-20T00:29:35.952Z,2.24
2018-02-20T00:30:35.880Z,2.18
2018-02-20T00:31:35.885Z,2.17
2018-02-20T00:32:35.801Z,2.25
2018-02-20T00:33:35.768Z,2.13
2018-02-20T00:34:35.730Z,2.13
2018-02-20T00:35:35.672Z,2.13
2018-02-20T00:36:35.636Z,2.00
2018-02-20T00:37:35.591Z,1.94
2018-02-20T00:38:35.555Z,1.95
2018-02-20T00:39:35.508Z,1.91
2018-02-20T00:40:35.468Z,1.81
2018-02-20T00:41:35.430Z,1.70
2018-02-20T00:42:35.393Z,1.77
2018-02-20T00:43:35.345Z,1.68
2018-02-20T00:44:35.303Z,1.58
2018-02-20T00:45:35.263Z,1.56
2018-02-20T00:46:35.220Z,1.55
2018-02-20T00:47:35.182Z,1.55
2018-02-20T00:48:35.142Z,1.50
2018-02-20T00:49:35.097Z,1.48
2018-02-20T00:50:35.056Z,1.50
2018-02-20T00:51:35.021Z,1.42
2018-02-20T00:52:34.972Z,1.44
2018-02-20T00:53:34.932Z,1.38
2018-02-20T00:54:34.891Z,1.32
2018-02-20T00:55:34.864Z,1.28
2018-02-20T00:56:34.808Z,1.20
2018-02-20T00:57:34.767Z,1.14
2018-02-20T00:58:34.754Z,1.08
2018-02-20T00:59:34.686Z,1.10
2018-02-20T01:00:34.644Z,1.04
2018-02-20T01:01:34.601Z,1.08
2018-02-20T01:02:34.590Z,1.17
2018-02-20T01:03:34.519Z,1.10
2018-02-20T01:04:34.476Z,1.19
2018-02-20T01:05:34.434Z,1.10
2018-02-20T01:06:34.397Z,1.16
2018-02-20T01:07:34.361Z,1.10
2018-02-20T01:08:34.340Z,1.08
2018-02-20T01:09:34.268Z,1.10
2018-02-20T01:10:34.242Z,1.06
2018-02-20T01:11:34.222Z,1.08
2018-02-20T01:12:34.149Z,1.06
2018-02-20T01:13:34.134Z,0.95
2018-02-20T01:14:34.063Z,0.95
2018-02-20T01:15:34.023Z,0.95
2018-02-20T01:16:33.977Z,0.96
2018-02-20T01:17:33.939Z,0.95
2018-02-20T01:18:33.902Z,0.78
2018-02-20T01:19:33.858Z,0.88
2018-02-20T01:20:33.814Z,0.87
2018-02-20T01:21:33.771Z,0.76
2018-02-20T01:22:33.729Z,0.69
2018-02-20T01:23:33.695Z,0.69
2018-02-20T01:24:33.644Z,0.70
2018-02-20T01:25:33.607Z,0.68
2018-02-20T01:26:33.568Z,0.59
2018-02-20T01:27:33.525Z,0.73
2018-02-20T01:28:33.477Z,0.62
2018-02-20T01:29:33.464Z,0.60
2018-02-20T01:30:33.409Z,0.50
2018-02-20T01:31:33.353Z,0.44
2018-02-20T01:32:33.311Z,0.50
2018-02-20T01:33:33.267Z,0.47
2018-02-20T01:34:33.234Z,0.50
2018-02-20T01:35:33.188Z,0.31
2018-02-20T01:36:33.144Z,0.34
2018-02-20T01:37:33.104Z,0.29
2018-02-20T01:38:33.062Z,0.31
2018-02-20T01:39:33.019Z,0.32
2018-02-20T01:40:33.022Z,0.18
2018-02-20T01:41:32.938Z,0.19
2018-02-20T01:42:32.893Z,0.15
2018-02-20T01:43:32.855Z,0.16
2018-02-20T01:44:32.810Z,0.15
2018-02-20T01:45:32.767Z,0.08
2018-02-20T01:46:32.728Z,0.04
2018-02-20T01:47:32.682Z,0.04
2018-02-20T01:48:32.654Z,0.04
2018-02-20T01:49:32.601Z,0.04
2018-02-20T01:50:32.561Z,0.00
2018-02-20T01:51:32.529Z,0.01
2018-02-20T01:52:32.471Z,0.07
2018-02-20T01:53:32.431Z,0.01
2018-02-20T01:54:32.396Z,0.03
2018-02-20T01:55:32.351Z,-0.02
2018-02-20T01:56:32.306Z,-0.02
2018-02-20T01:57:32.263Z,-0.11
2018-02-20T01:58:32.231Z,-0.03
2018-02-20T01:59:32.183Z,-0.07
2018-02-20T02:00:32.135Z,-0.03
2018-02-20T02:01:32.094Z,-0.07
2018-02-20T02:02:32.057Z,-0.11
2018-02-20T02:03:32.020Z,-0.06
2018-02-20T02:04:31.968Z,-0.03
2018-02-20T02:05:31.931Z,-0.18
2018-02-20T02:06:31.887Z,-0.03
2018-02-20T02:07:31.844Z,-0.13
2018-02-20T02:08:31.798Z,-0.23
2018-02-20T02:09:31.783Z,-0.25
2018-02-20T02:10:31.714Z,-0.21
2018-02-20T02:11:31.672Z,-0.25
2018-02-20T02:12:31.630Z,-0.32
2018-02-20T02:13:31.588Z,-0.26
2018-02-20T02:14:31.549Z,-0.31
2018-02-20T02:15:31.514Z,-0.31
2018-02-20T02:16:31.467Z,-0.32
2018-02-20T02:17:31.421Z,-0.29
2018-02-20T02:18:31.381Z,-0.28
2018-02-20T02:19:31.336Z,-0.31
2018-02-20T02:20:31.295Z,-0.34
2018-02-20T02:21:31.282Z,-0.36
2018-02-20T02:22:31.217Z,-0.36
2018-02-20T02:23:31.170Z,-0.36
2018-02-20T02:24:31.124Z,-0.31
2018-02-20T02:25:31.079Z,-0.49
2018-02-20T02:26:31.037Z,-0.39
2018-02-20T02:27:31.000Z,-0.43
2018-02-20T02:28:30.955Z,-0.35
2018-02-20T02:29:30.916Z,-0.35
2018-02-20T02:30:30.882Z,-0.32
2018-02-20T02:31:30.835Z,-0.47
2018-02-20T02:32:30.782Z,-0.52
2018-02-20T02:33:30.745Z,-0.52
2018-02-20T02:34:30.701Z,-0.39
2018-02-20T02:35:30.659Z,-0.53
2018-02-20T02:36:31.296Z,-0.44
2018-02-20T02:37:30.588Z,-0.41
2018-02-20T02:38:30.532Z,-0.46
2018-02-20T02:39:30.498Z,-0.47
2018-02-20T02:40:30.447Z,-0.41
2018-02-20T02:41:30.411Z,-0.46
2018-02-20T02:42:30.369Z,-0.50
2018-02-20T02:43:30.324Z,-0.49
2018-02-20T02:44:30.280Z,-0.54
2018-02-20T02:45:30.239Z,-0.56
2018-02-20T02:46:30.200Z,-0.70
2018-02-20T02:47:30.162Z,-0.56
2018-02-20T02:48:30.110Z,-0.68
2018-02-20T02:49:30.065Z,-0.62
2018-02-20T02:50:30.022Z,-0.54
2018-02-20T02:51:29.978Z,-0.68
2018-02-20T02:52:29.947Z,-0.61
2018-02-20T02:53:29.894Z,-0.67
2018-02-20T02:54:29.857Z,-0.56
2018-02-20T02:55:29.814Z,-0.59
2018-02-20T02:56:29.770Z,-0.53
2018-02-20T02:57:29.734Z,-0.71
2018-02-20T02:58:29.687Z,-0.68
2018-02-20T02:59:29.642Z,-0.67
2018-02-20T03:00:29.604Z,-0.67
2018-02-20T03:01:29.559Z,-0.57
2018-02-20T03:02:29.515Z,-0.65
2018-02-20T03:03:29.474Z,-0.64
2018-02-20T03:04:29.436Z,-0.70
2018-02-20T03:05:29.389Z,-0.72
2018-02-20T03:06:29.348Z,-0.65
2018-02-20T03:07:29.304Z,-0.74
2018-02-20T03:08:29.261Z,-0.74
2018-02-20T03:09:29.216Z,-0.71
2018-02-20T03:10:29.176Z,-0.78
2018-02-20T03:11:29.136Z,-0.71
2018-02-20T03:12:29.128Z,-0.70
2018-02-20T03:13:29.048Z,-0.68
2018-02-20T03:14:29.010Z,-0.74
2018-02-20T03:15:28.988Z,-0.74
2018-02-20T03:16:28.950Z,-0.70
2018-02-20T03:17:28.878Z,-0.68
2018-02-20T03:18:28.839Z,-0.68
2018-02-20T03:19:28.797Z,-0.61
2018-02-20T03:20:28.752Z,-0.62
2018-02-20T03:21:28.711Z,-0.65
2018-02-20T03:22:28.674Z,-0.70
2018-02-20T03:23:28.625Z,-0.74
2018-02-20T03:24:28.589Z,-0.70
2018-02-20T03:25:28.541Z,-0.82
2018-02-20T03:26:28.497Z,-0.93
2018-02-20T03:27:28.458Z,-0.78
2018-02-20T03:28:28.414Z,-0.90
2018-02-20T03:29:28.368Z,-0.90
2018-02-20T03:30:28.337Z,-0.85
2018-02-20T03:31:28.285Z,-0.91
2018-02-20T03:32:28.245Z,-0.82
2018-02-20T03:33:28.201Z,-0.91
2018-02-20T03:34:28.169Z,-0.96
2018-02-20T03:35:28.116Z,-0.91
2018-02-20T03:36:28.073Z,-0.96
2018-02-20T03:37:28.029Z,-0.89
2018-02-20T03:38:27.993Z,-0.86
2018-02-20T03:39:27.944Z,-1.01
2018-02-20T03:40:27.910Z,-0.94
2018-02-20T03:41:27.858Z,-1.01
2018-02-20T03:42:27.851Z,-1.01
2018-02-20T03:43:27.784Z,-0.94
2018-02-20T03:44:27.754Z,-1.05
2018-02-20T03:45:27.694Z,-1.09
2018-02-20T03:46:27.647Z,-1.04
2018-02-20T03:47:27.608Z,-1.09
2018-02-20T03:48:27.564Z,-1.12
2018-02-20T03:49:27.529Z,-1.20
2018-02-20T03:50:27.478Z,-1.14
2018-02-20T03:51:27.434Z,-1.20
2018-02-20T03:52:27.397Z,-1.15
2018-02-20T03:53:27.364Z,-1.22
2018-02-20T03:54:27.308Z,-1.20
2018-02-20T03:55:27.268Z,-1.23
2018-02-20T03:56:27.237Z,-1.29
2018-02-20T03:57:27.184Z,-1.35
2018-02-20T03:58:27.143Z,-1.27
2018-02-20T03:59:27.095Z,-1.27
2018-02-20T04:00:27.089Z,-1.38
2018-02-20T04:01:27.063Z,-1.40
2018-02-20T04:02:26.997Z,-1.44
2018-02-20T04:03:26.928Z,-1.44
2018-02-20T04:04:26.881Z,-1.38
2018-02-20T04:05:26.842Z,-1.35
2018-02-20T04:06:26.814Z,-1.44
2018-02-20T04:07:26.755Z,-1.37
2018-02-20T04:08:26.717Z,-1.40
2018-02-20T04:09:26.682Z,-1.33
2018-02-20T04:10:26.651Z,-1.30
2018-02-20T04:11:26.587Z,-1.22
2018-02-20T04:12:26.543Z,-1.15
2018-02-20T04:13:26.501Z,-1.12
2018-02-20T04:14:26.457Z,-1.07
2018-02-20T04:15:26.420Z,-1.01
2018-02-20T04:16:26.370Z,-1.02
2018-02-20T04:17:26.330Z,-1.01
2018-02-20T04:18:26.285Z,-0.93
2018-02-20T04:19:26.245Z,-0.99
2018-02-20T04:20:26.203Z,-0.99
2018-02-20T04:21:26.158Z,-1.04
2018-02-20T04:22:26.149Z,-0.94
2018-02-20T04:23:26.071Z,-1.04
2018-02-20T04:24:26.032Z,-1.09
2018-02-20T04:25:25.991Z,-1.09
2018-02-20T04:26:25.955Z,-1.08
2018-02-20T04:27:25.906Z,-1.04
2018-02-20T04:28:25.874Z,-1.14
2018-02-20T04:29:25.827Z,-1.14
2018-02-20T04:30:25.777Z,-1.20
2018-02-20T04:31:25.769Z,-1.11
2018-02-20T04:32:25.688Z,-1.17
2018-02-20T04:33:25.648Z,-1.15
2018-02-20T04:34:25.607Z,-1.26
2018-02-20T04:35:25.562Z,-1.26
2018-02-20T04:36:25.518Z,-1.32
2018-02-20T04:37:25.475Z,-1.38
2018-02-20T04:38:25.433Z,-1.47
2018-02-20T04:39:25.389Z,-1.37
2018-02-20T04:40:25.349Z,-1.41
2018-02-20T04:41:25.304Z,-1.43
2018-02-20T04:42:25.262Z,-1.41
2018-02-20T04:43:25.222Z,-1.41
2018-02-20T04:44:25.179Z,-1.35
2018-02-20T04:45:25.133Z,-1.37
2018-02-20T04:46:25.103Z,-1.43
2018-02-20T04:47:25.048Z,-1.46
2018-02-20T04:48:25.008Z,-1.41
2018-02-20T04:49:24.962Z,-1.50
2018-02-20T04:50:24.922Z,-1.44
2018-02-20T04:51:24.888Z,-1.51
2018-02-20T04:52:24.834Z,-1.48
2018-02-20T04:53:24.798Z,-1.62
2018-02-20T04:54:24.758Z,-1.41
2018-02-20T04:55:24.707Z,-1.44
2018-02-20T04:56:24.705Z,-1.41
2018-02-20T04:57:24.621Z,-1.41
2018-02-20T04:58:24.577Z,-1.41
2018-02-20T04:59:24.538Z,-1.53
2018-02-20T05:00:24.497Z,-1.47
2018-02-20T05:01:24.449Z,-1.53
2018-02-20T05:02:24.408Z,-1.56
2018-02-20T05:03:24.368Z,-1.53
2018-02-20T05:04:24.328Z,-1.56
2018-02-20T05:05:24.277Z,-1.53
2018-02-20T05:06:24.237Z,-1.47
2018-02-20T05:07:24.197Z,-1.44
2018-02-20T05:08:24.189Z,-1.48
2018-02-20T05:09:24.108Z,-1.35
2018-02-20T05:10:24.073Z,-1.37
2018-02-20T05:11:24.025Z,-1.43
2018-02-20T05:12:23.985Z,-1.43
2018-02-20T05:13:23.939Z,-1.46
2018-02-20T05:14:23.898Z,-1.37
2018-02-20T05:15:23.853Z,-1.40
2018-02-20T05:16:23.815Z,-1.40
2018-02-20T05:17:23.778Z,-1.40
2018-02-20T05:18:23.734Z,-1.44
2018-02-20T05:19:23.680Z,-1.41
2018-02-20T05:20:23.652Z,-1.53
2018-02-20T05:21:23.603Z,-1.56
2018-02-20T05:22:23.562Z,-1.48
2018-02-20T05:23:23.513Z,-1.44
2018-02-20T05:24:23.478Z,-1.48
2018-02-20T05:25:23.446Z,-1.47
2018-02-20T05:26:23.387Z,-1.50
2018-02-20T05:27:23.346Z,-1.53
2018-02-20T05:28:23.298Z,-1.53
2018-02-20T05:29:23.267Z,-1.58
2018-02-20T05:30:23.229Z,-1.62
2018-02-20T05:31:23.176Z,-1.54
2018-02-20T05:32:23.131Z,-1.64
2018-02-20T05:33:23.090Z,-1.61
2018-02-20T05:34:23.052Z,-1.65
2018-02-20T05:35:22.998Z,-1.74
2018-02-20T05:36:22.968Z,-1.69
2018-02-20T05:37:22.927Z,-1.82
2018-02-20T05:38:22.873Z,-1.82
2018-02-20T05:39:22.829Z,-1.83
2018-02-20T05:40:22.787Z,-1.80
2018-02-20T05:41:22.787Z,-1.83
2018-02-20T05:42:22.701Z,-1.79
2018-02-20T05:43:22.664Z,-1.86
2018-02-20T05:44:22.614Z,-2.00
2018-02-20T05:45:22.578Z,-1.90
2018-02-20T05:46:22.532Z,-1.97
2018-02-20T05:47:22.488Z,-2.04
2018-02-20T05:48:22.446Z,-2.04
2018-02-20T05:49:22.399Z,-2.05
2018-02-20T05:50:22.362Z,-2.02
2018-02-20T05:51:22.334Z,-1.97
2018-02-20T05:52:22.272Z,-1.92
2018-02-20T05:53:22.236Z,-1.98
2018-02-20T05:54:22.188Z,-2.02
2018-02-20T05:55:22.146Z,-2.05
2018-02-20T05:56:22.100Z,-2.00
2018-02-20T05:57:22.065Z,-2.00
2018-02-20T05:58:22.018Z,-2.10
2018-02-20T05:59:21.975Z,-2.01
2018-02-20T06:00:21.931Z,-2.10
2018-02-20T06:01:21.885Z,-2.02
2018-02-20T06:02:21.846Z,-2.01
2018-02-20T06:03:21.798Z,-2.00
2018-02-20T06:04:21.760Z,-2.01
2018-02-20T06:05:21.728Z,-1.97
2018-02-20T06:06:21.670Z,-1.86
2018-02-20T06:07:21.663Z,-1.97
2018-02-20T06:08:21.583Z,-1.92
2018-02-20T06:09:21.556Z,-2.04
2018-02-20T06:10:21.510Z,-1.94
2018-02-20T06:11:21.456Z,-1.97
2018-02-20T06:12:21.411Z,-1.94
2018-02-20T06:13:21.372Z,-2.00
2018-02-20T06:14:21.336Z,-1.94
2018-02-20T06:15:21.282Z,-1.97
2018-02-20T06:16:21.243Z,-2.04
2018-02-20T06:17:21.201Z,-1.98
2018-02-20T06:18:21.155Z,-2.02
2018-02-20T06:19:21.112Z,-2.12
2018-02-20T06:20:21.068Z,-2.05
2018-02-20T06:21:21.028Z,-2.05
2018-02-20T06:22:20.991Z,-1.95
2018-02-20T06:23:20.940Z,-2.05
2018-02-20T06:24:20.896Z,-2.00
2018-02-20T06:25:20.854Z,-2.10
2018-02-20T06:26:20.810Z,-2.15
2018-02-20T06:27:20.766Z,-1.98
2018-02-20T06:28:20.723Z,-2.04
2018-02-20T06:29:20.681Z,-1.92
2018-02-20T06:30:20.637Z,-1.97
2018-02-20T06:31:20.594Z,-1.90
2018-02-20T06:32:20.555Z,-1.90
2018-02-20T06:33:20.508Z,-1.89
2018-02-20T06:34:20.466Z,-1.98
2018-02-20T06:35:20.432Z,-2.00
2018-02-20T06:36:20.379Z,-1.92
2018-02-20T06:37:20.338Z,-1.97
2018-02-20T06:38:20.294Z,-1.98
2018-02-20T06:39:20.250Z,-1.90
2018-02-20T06:40:20.206Z,-1.89
2018-02-20T06:41:20.164Z,-1.87
2018-02-20T06:42:20.126Z,-1.86
2018-02-20T06:43:20.091Z,-1.86
2018-02-20T06:44:20.057Z,-1.86
2018-02-20T06:45:20.765Z,-1.89
2018-02-20T06:46:19.949Z,-1.71
2018-02-20T06:47:19.904Z,-1.76
2018-02-20T06:48:19.864Z,-1.83
2018-02-20T06:49:19.822Z,-1.71
2018-02-20T06:50:19.776Z,-1.71
2018-02-20T06:51:19.750Z,-1.64
2018-02-20T06:52:19.691Z,-1.50
2018-02-20T06:53:19.647Z,-1.66
2018-02-20T06:54:19.603Z,-1.59
2018-02-20T06:55:19.560Z,-1.58
2018-02-20T06:56:19.523Z,-1.56
2018-02-20T06:57:19.476Z,-1.54
2018-02-20T06:58:19.433Z,-1.48
2018-02-20T06:59:19.389Z,-1.50
2018-02-20T07:00:19.349Z,-1.61
2018-02-20T07:01:19.304Z,-1.58
2018-02-20T07:02:19.267Z,-1.62
2018-02-20T07:03:19.217Z,-1.61
2018-02-20T07:04:19.180Z,-1.59
2018-02-20T07:05:19.131Z,-1.56
2018-02-20T07:06:19.094Z,-1.48
2018-02-20T07:07:19.047Z,-1.53
2018-02-20T07:08:19.001Z,-1.41
2018-02-20T07:09:18.961Z,-1.40
2018-02-20T07:10:18.918Z,-1.35
2018-02-20T07:11:18.877Z,-1.22
2018-02-20T07:12:18.833Z,-1.19
2018-02-20T07:13:18.797Z,-1.08
2018-02-20T07:14:18.754Z,-1.11
2018-02-20T07:15:18.705Z,-1.01
2018-02-20T07:16:18.665Z,-1.02
2018-02-20T07:17:18.626Z,-0.89
2018-02-20T07:18:18.583Z,-0.78
2018-02-20T07:19:18.537Z,-0.75
2018-02-20T07:20:18.498Z,-0.64
2018-02-20T07:21:18.454Z,-0.52
2018-02-20T07:22:18.414Z,-0.49
2018-02-20T07:23:18.371Z,-0.43
2018-02-20T07:24:18.330Z,-0.35
2018-02-20T07:25:18.300Z,-0.26
2018-02-20T07:26:18.251Z,-0.10
2018-02-20T07:27:18.207Z,-0.08
2018-02-20T07:28:18.165Z,0.03
2018-02-20T07:29:18.126Z,0.03
2018-02-20T07:30:18.086Z,0.04
2018-02-20T07:31:18.044Z,0.21
2018-02-20T07:32:18.002Z,0.19
2018-02-20T07:33:17.977Z,0.28
2018-02-20T07:34:17.920Z,0.46
2018-02-20T07:35:17.881Z,0.44
2018-02-20T07:36:17.842Z,0.65
2018-02-20T07:37:17.800Z,0.76
2018-02-20T07:38:17.758Z,0.87
2018-02-20T07:39:17.717Z,0.99
2018-02-20T07:40:17.680Z,1.06
2018-02-20T07:41:17.640Z,1.12
2018-02-20T07:42:17.597Z,1.14
2018-02-20T07:43:17.565Z,1.26
2018-02-20T07:44:17.519Z,1.35
2018-02-20T07:45:17.481Z,1.40
2018-02-20T07:46:17.439Z,1.40
2018-02-20T07:47:17.401Z,1.50
2018-02-20T07:48:17.360Z,1.52
2018-02-20T07:49:17.334Z,1.62
2018-02-20T07:50:17.285Z,1.56
2018-02-20T07:51:17.239Z,1.67
2018-02-20T07:52:17.200Z,1.78
2018-02-20T07:53:17.163Z,1.80
2018-02-20T07:54:17.125Z,1.95
2018-02-20T07:55:17.087Z,2.02
2018-02-20T07:56:17.043Z,2.24
2018-02-20T07:57:17.010Z,2.28
2018-02-20T07:58:16.994Z,2.26
2018-02-20T07:59:16.963Z,2.49
2018-02-20T08:00:16.891Z,2.53
2018-02-20T08:01:16.849Z,2.62
2018-02-20T08:02:16.813Z,2.74
2018-02-20T08:03:16.771Z,2.86
2018-02-20T08:04:16.737Z,2.92
2018-02-20T08:05:16.695Z,3.03
2018-02-20T08:06:16.666Z,3.18
2018-02-20T08:07:16.621Z,3.34
2018-02-20T08:08:16.584Z,3.22
2018-02-20T08:09:16.546Z,3.34
2018-02-20T08:10:16.509Z,3.50
2018-02-20T08:11:16.471Z,3.62
2018-02-20T08:12:16.435Z,3.83
2018-02-20T08:13:16.403Z,3.88
2018-02-20T08:14:16.363Z,4.01
2018-02-20T08:15:16.325Z,4.13
2018-02-20T08:16:16.287Z,4.20
2018-02-20T08:17:16.288Z,4.35
2018-02-20T08:18:16.216Z,4.45
2018-02-20T08:19:16.182Z,4.56
2018-02-20T08:20:16.144Z,4.73
2018-02-20T08:21:16.105Z,4.73
2018-02-20T08:22:16.074Z,4.78
2018-02-20T08:23:16.036Z,4.90
2018-02-20T08:24:16.001Z,5.17
2018-02-20T08:25:15.969Z,5.30
2018-02-20T08:26:15.933Z,5.46
2018-02-20T08:27:15.894Z,5.57
2018-02-20T08:28:15.861Z,5.61
2018-02-20T08:29:15.827Z,5.87
2018-02-20T08:30:15.797Z,6.01
2018-02-20T08:31:15.762Z,5.89
2018-02-20T08:32:15.726Z,6.07
2018-02-20T08:33:15.691Z,5.99
2018-02-20T08:34:15.662Z,6.12
2018-02-20T08:35:15.626Z,6.20
2018-02-20T08:36:15.594Z,6.28
2018-02-20T08:37:15.571Z,6.57
2018-02-20T08:38:15.527Z,6.67
2018-02-20T08:39:15.496Z,6.79
2018-02-20T08:40:15.459Z,7.00
2018-02-20T08:41:15.425Z,7.00
2018-02-20T08:42:15.396Z,7.28
2018-02-20T08:43:15.362Z,7.40
2018-02-20T08:44:15.336Z,7.60
2018-02-20T08:45:15.297Z,7.87
2018-02-20T08:46:15.265Z,8.03
2018-02-20T08:47:15.236Z,8.05
2018-02-20T08:48:15.201Z,8.16
2018-02-20T08:49:15.173Z,8.20
2018-02-20T08:50:15.138Z,8.63
2018-02-20T08:51:15.110Z,8.23
2018-02-20T08:52:15.089Z,8.44
2018-02-20T08:53:15.047Z,8.41
2018-02-20T08:54:15.018Z,8.52
2018-02-20T08:55:14.985Z,8.71
2018-02-20T08:56:14.953Z,8.76
2018-02-20T08:57:14.923Z,8.87
2018-02-20T08:58:14.894Z,9.06
2018-02-20T08:59:14.865Z,9.16
2018-02-20T09:00:14.828Z,9.11
2018-02-20T09:01:14.805Z,9.14
2018-02-20T09:02:14.771Z,8.82
2018-02-20T09:03:14.771Z,8.78
2018-02-20T09:04:14.712Z,8.71
2018-02-20T09:05:14.678Z,8.74
2018-02-20T09:06:14.648Z,8.69
2018-02-20T09:07:14.666Z,8.55
2018-02-20T09:08:14.588Z,9.02
2018-02-20T09:09:14.556Z,9.25
2018-02-20T09:10:14.527Z,9.48
2018-02-20T09:11:14.497Z,9.89
2018-02-20T09:12:14.473Z,9.92
2018-02-20T09:13:14.442Z,9.84
2018-02-20T09:14:14.407Z,10.31
2018-02-20T09:15:14.380Z,10.51
2018-02-20T09:16:14.379Z,10.71
2018-02-20T09:17:14.321Z,10.90
2018-02-20T09:18:14.292Z,10.87
2018-02-20T09:19:14.294Z,11.05
2018-02-20T09:20:14.233Z,11.25
2018-02-20T09:21:14.208Z,11.36
2018-02-20T09:22:14.183Z,11.40
2018-02-20T09:23:14.149Z,11.66
2018-02-20T09:24:14.123Z,11.60
2018-02-20T09:25:14.092Z,11.81
2018-02-20T09:26:14.068Z,11.87
2018-02-20T09:27:14.043Z,12.13
2018-02-20T09:28:14.011Z,12.27
2018-02-20T09:29:13.988Z,12.32
2018-02-20T09:30:13.955Z,12.39
2018-02-20T09:31:13.926Z,12.43
2018-02-20T09:32:13.906Z,12.39
2018-02-20T09:33:13.872Z,12.60
2018-02-20T09:34:13.849Z,12.78
2018-02-20T09:35:13.825Z,12.98
2018-02-20T09:36:13.794Z,12.76
2018-02-20T09:37:13.763Z,12.70
2018-02-20T09:38:13.741Z,12.83
2018-02-20T09:39:13.716Z,12.57
2018-02-20T09:40:13.683Z,12.53
2018-02-20T09:41:13.675Z,12.49
2018-02-20T09:42:13.632Z,12.49
2018-02-20T09:43:13.603Z,12.75
2018-02-20T09:44:13.583Z,13.12
2018-02-20T09:45:13.550Z,13.31
2018-02-20T09:46:13.528Z,13.23
2018-02-20T09:47:13.502Z,13.57
2018-02-20T09:48:13.472Z,13.86
2018-02-20T09:49:13.448Z,14.18
2018-02-20T09:50:13.422Z,14.10
2018-02-20T09:51:13.397Z,14.26
2018-02-20T09:52:13.389Z,14.60
2018-02-20T09:53:13.346Z,14.43
2018-02-20T09:54:13.320Z,14.68
2018-02-20T09:55:13.295Z,14.70
2018-02-20T09:56:13.271Z,14.78
2018-02-20T09:57:13.252Z,15.27
2018-02-20T09:58:13.221Z,15.37
2018-02-20T09:59:13.192Z,15.39
2018-02-20T10:00:13.170Z,15.49
2018-02-20T10:01:13.144Z,15.10
2018-02-20T10:02:13.128Z,14.68
2018-02-20T10:03:13.095Z,14.44
2018-02-20T10:04:13.069Z,14.08
2018-02-20T10:05:13.044Z,14.25
2018-02-20T10:06:13.022Z,14.35
2018-02-20T10:07:12.996Z,14.00
2018-02-20T10:08:12.970Z,14.44
2018-02-20T10:09:12.948Z,14.51
2018-02-20T10:10:12.922Z,14.62
2018-02-20T10:11:12.900Z,15.09
2018-02-20T10:12:12.880Z,15.22
2018-02-20T10:13:12.850Z,15.44
2018-02-20T10:14:12.827Z,15.28
2018-02-20T10:15:12.802Z,15.24
2018-02-20T10:16:12.780Z,15.06
2018-02-20T10:17:12.762Z,15.00
2018-02-20T10:18:12.731Z,15.14
2018-02-20T10:19:12.711Z,15.37
2018-02-20T10:20:12.686Z,15.03
2018-02-20T10:21:12.664Z,14.92
2018-02-20T10:22:12.638Z,15.07
2018-02-20T10:23:12.617Z,15.31
2018-02-20T10:24:12.591Z,15.55
2018-02-20T10:25:12.567Z,15.64
2018-02-20T10:26:12.546Z,15.90
2018-02-20T10:27:12.522Z,16.38
2018-02-20T10:28:12.496Z,16.57
2018-02-20T10:29:12.473Z,16.56
2018-02-20T10:30:12.453Z,16.53
2018-02-20T10:31:12.430Z,16.53
2018-02-20T10:32:12.405Z,15.25
2018-02-20T10:33:12.385Z,15.76
2018-02-20T10:34:12.366Z,15.72
2018-02-20T10:35:12.338Z,16.05
2018-02-20T10:36:12.315Z,16.12
2018-02-20T10:37:12.289Z,16.60
2018-02-20T10:38:12.274Z,16.76
2018-02-20T10:39:12.243Z,16.75
2018-02-20T10:40:12.226Z,17.27
2018-02-20T10:41:12.199Z,17.45
2018-02-20T10:42:12.186Z,17.51
2018-02-20T10:43:12.156Z,17.24
2018-02-20T10:44:12.130Z,17.49
2018-02-20T10:45:12.110Z,18.07
2018-02-20T10:46:12.092Z,17.76
2018-02-20T10:47:12.065Z,17.49
2018-02-20T10:48:12.044Z,17.83
2018-02-20T10:49:12.021Z,18.62
2018-02-20T10:50:12.002Z,19.00
2018-02-20T10:51:11.987Z,18.99
2018-02-20T10:52:11.954Z,19.22
2018-02-20T10:53:11.934Z,19.62
2018-02-20T10:54:11.911Z,19.24
2018-02-20T10:55:11.890Z,19.37
2018-02-20T10:56:11.873Z,19.02
2018-02-20T10:57:11.846Z,19.41
2018-02-20T10:58:11.822Z,19.21
2018-02-20T10:59:11.800Z,18.71
2018-02-20T11:00:11.784Z,18.41
2018-02-20T11:01:11.757Z,18.26
2018-02-20T11:02:11.737Z,18.01
2018-02-20T11:03:11.713Z,18.63
2018-02-20T11:04:11.700Z,18.77
2018-02-20T11:05:11.671Z,19.12
2018-02-20T11:06:11.648Z,19.09
2018-02-20T11:07:11.626Z,19.02
2018-02-20T11:08:11.603Z,18.68
2018-02-20T11:09:11.583Z,19.02
2018-02-20T11:10:11.562Z,18.45
2018-02-20T11:11:11.555Z,19.04
2018-02-20T11:12:11.519Z,19.41
2018-02-20T11:13:11.538Z,18.99
2018-02-20T11:14:11.474Z,18.55
2018-02-20T11:15:11.448Z,18.44
2018-02-20T11:16:11.435Z,18.34
2018-02-20T11:17:11.409Z,18.59
2018-02-20T11:18:11.387Z,18.52
2018-02-20T11:19:11.368Z,19.29
2018-02-20T11:20:11.352Z,19.71
2018-02-20T11:21:11.323Z,19.70
2018-02-20T11:22:11.301Z,20.13
2018-02-20T11:23:11.279Z,19.48
2018-02-20T11:24:11.259Z,19.51
2018-02-20T11:25:11.236Z,19.77
2018-02-20T11:26:11.216Z,20.14
2018-02-20T11:27:11.191Z,20.21
2018-02-20T11:28:11.171Z,20.63
2018-02-20T11:29:11.151Z,20.47
2018-02-20T11:30:11.127Z,20.37
2018-02-20T11:31:11.103Z,20.47
2018-02-20T11:32:11.081Z,19.59
2018-02-20T11:33:11.067Z,19.84
2018-02-20T11:34:11.039Z,20.47
2018-02-20T11:35:11.017Z,20.90
2018-02-20T11:36:11.005Z,21.00
2018-02-20T11:37:10.976Z,21.20
2018-02-20T11:38:10.955Z,21.37
2018-02-20T11:39:10.932Z,21.39
2018-02-20T11:40:10.910Z,20.74
2018-02-20T11:41:10.892Z,20.81
2018-02-20T11:42:10.882Z,20.78
2018-02-20T11:43:10.852Z,20.34
2018-02-20T11:44:10.826Z,20.21
2018-02-20T11:45:10.805Z,20.47
2018-02-20T11:46:10.787Z,20.63
2018-02-20T11:47:10.761Z,20.90
2018-02-20T11:48:10.740Z,20.10
2018-02-20T11:49:10.727Z,20.67
2018-02-20T11:50:10.698Z,20.63
2018-02-20T11:51:10.675Z,20.25
2018-02-20T11:52:10.654Z,20.75
2018-02-20T11:53:10.635Z,20.81
2018-02-20T11:54:10.613Z,20.39
2018-02-20T11:55:10.592Z,20.75
2018-02-20T11:56:10.574Z,20.60
2018-02-20T11:57:10.552Z,21.15
2018-02-20T11:58:10.527Z,21.43
2018-02-20T11:59:10.506Z,21.70
2018-02-20T12:00:10.483Z,21.25
2018-02-20T12:01:10.463Z,21.75
2018-02-20T12:02:10.441Z,22.04
2018-02-20T12:03:10.425Z,22.13
2018-02-20T12:04:10.399Z,21.61
2018-02-20T12:05:10.378Z,21.57
2018-02-20T12:06:10.353Z,21.06
2018-02-20T12:07:10.332Z,20.63
2018-02-20T12:08:10.364Z,20.44
2018-02-20T12:09:10.293Z,20.11
2018-02-20T12:10:10.271Z,19.84
2018-02-20T12:11:10.252Z,20.47
2018-02-20T12:12:10.226Z,20.62
2018-02-20T12:13:10.205Z,20.36
2018-02-20T12:14:10.184Z,20.80
2018-02-20T12:15:10.157Z,20.62
2018-02-20T12:16:10.144Z,20.78
2018-02-20T12:17:10.118Z,20.63
2018-02-20T12:18:10.095Z,19.82
2018-02-20T12:19:10.076Z,20.32
2018-02-20T12:20:10.054Z,20.03
2018-02-20T12:21:10.031Z,19.88
2018-02-20T12:22:10.006Z,19.74
2018-02-20T12:23:09.995Z,18.63
2018-02-20T12:24:09.961Z,18.22
2018-02-20T12:25:09.944Z,18.50
2018-02-20T12:26:09.922Z,18.63
2018-02-20T12:27:09.897Z,18.15
2018-02-20T12:28:09.876Z,17.89
2018-02-20T12:29:09.851Z,17.38
2018-02-20T12:30:09.840Z,17.80
2018-02-20T12:31:09.806Z,17.87
2018-02-20T12:32:09.783Z,17.63
2018-02-20T12:33:09.758Z,17.31
2018-02-20T12:34:09.734Z,17.06
2018-02-20T12:35:09.709Z,17.05
2018-02-20T12:36:09.687Z,16.76
2018-02-20T12:37:09.661Z,16.61
2018-02-20T12:38:09.637Z,16.41
2018-02-20T12:39:09.612Z,16.12
2018-02-20T12:40:09.583Z,15.44
2018-02-20T12:41:09.561Z,15.31
2018-02-20T12:42:09.532Z,15.04
2018-02-20T12:43:09.503Z,15.09
2018-02-20T12:44:09.478Z,14.97
2018-02-20T12:45:09.453Z,15.22
2018-02-20T12:46:09.430Z,14.85
2018-02-20T12:47:09.399Z,15.02
2018-02-20T12:48:09.376Z,14.85
2018-02-20T12:49:09.344Z,14.65
2018-02-20T12:50:09.320Z,14.45
2018-02-20T12:51:09.284Z,14.29
2018-02-20T12:52:09.255Z,14.35
2018-02-20T12:53:09.231Z,14.40
2018-02-20T12:54:09.209Z,14.48
2018-02-20T12:55:09.172Z,13.86
2018-02-20T12:56:09.142Z,14.10
2018-02-20T12:57:09.115Z,14.17
2018-02-20T12:58:09.087Z,14.08
2018-02-20T12:59:09.078Z,14.36